createdAt,value
2022-08-19T00:03:57.974Z,97611.88
2022-08-19T00:24:00.614Z,97601.28
2022-08-19T00:44:03.639Z,97593.94
2022-08-19T01:04:06.091Z,97594.00
2022-08-19T01:24:08.828Z,97571.31
2022-08-19T01:44:18.483Z,97562.44
2022-08-19T02:04:23.101Z,97546.94
2022-08-19T02:24:25.640Z,97539.25
2022-08-19T02:44:31.373Z,97534.06
2022-08-19T03:04:34.333Z,97556.53
2022-08-19T03:24:37.449Z,97538.50
2022-08-19T03:44:40.357Z,97548.28
2022-08-19T04:04:42.814Z,97541.41
2022-08-19T04:24:45.341Z,97563.44
2022-08-19T04:44:48.068Z,97567.31
2022-08-19T05:04:50.977Z,97598.38
2022-08-19T05:25:11.824Z,97604.72
2022-08-19T05:45:15.628Z,97591.47
2022-08-19T06:05:18.184Z,97606.81
2022-08-19T06:25:20.854Z,97601.81
2022-08-19T06:45:24.931Z,97630.28
2022-08-19T07:05:27.958Z,97630.94
2022-08-19T07:25:32.174Z,97662.84
2022-08-19T07:45:36.289Z,97676.13
2022-08-19T08:05:58.426Z,97692.13
2022-08-19T08:26:01.427Z,97714.87
2022-08-19T08:46:04.717Z,97711.22
2022-08-19T09:06:11.986Z,97708.59
2022-08-19T09:26:19.920Z,97686.72
2022-08-19T09:46:25.862Z,97668.03
2022-08-19T10:06:39.916Z,97681.53
2022-08-19T10:26:55.915Z,97664.56
2022-08-19T10:47:02.351Z,97672.69
2022-08-19T11:07:05.919Z,97681.03
2022-08-19T11:27:08.694Z,97653.72
2022-08-19T11:47:11.404Z,97633.47
2022-08-19T12:07:14.287Z,97634.31
2022-08-19T12:27:32.331Z,97637.56
2022-08-19T12:47:40.836Z,97626.09
2022-08-19T13:07:46.325Z,97612.75
2022-08-19T13:27:49.049Z,97587.66
2022-08-19T13:47:54.702Z,97587.59
2022-08-19T14:08:01.841Z,97588.81
2022-08-19T14:28:04.611Z,97580.81
2022-08-19T14:48:07.213Z,97567.19
2022-08-19T15:08:10.049Z,97554.72
2022-08-19T15:28:18.381Z,97521.31
2022-08-19T15:48:21.198Z,97516.97
2022-08-19T16:08:23.795Z,97486.34
2022-08-19T16:28:26.702Z,97516.16
2022-08-19T16:48:30.950Z,97538.78
2022-08-19T17:08:33.473Z,97518.78
2022-08-19T17:28:36.266Z,97509.47
2022-08-19T17:48:41.979Z,97567.00
2022-08-19T18:08:45.800Z,97553.56
2022-08-19T18:28:50.199Z,97699.25
2022-08-19T18:49:09.183Z,97769.28
2022-08-19T19:09:11.989Z,97920.22
2022-08-19T19:29:14.585Z,97852.25
2022-08-19T19:49:17.327Z,97852.81
2022-08-19T20:09:20.075Z,97856.72
2022-08-19T20:29:38.292Z,97833.72
2022-08-19T20:49:41.681Z,97822.59
2022-08-19T21:09:44.236Z,97804.34
2022-08-19T21:29:46.833Z,97782.06
2022-08-19T21:49:49.868Z,97817.12
2022-08-19T22:09:52.753Z,97835.50
2022-08-19T22:29:55.319Z,97830.88
2022-08-19T22:49:57.999Z,97835.47
2022-08-19T23:10:00.609Z,97798.63
2022-08-19T23:30:22.313Z,97809.88
2022-08-19T23:50:25.488Z,97795.91
